sensor_id;sensor_type;location;lat;lon;timestamp;P1;durP1;ratioP1;P2;durP2;ratioP2
29824;SDS011;16713;52.916;12.834;2023-04-01T00:01:14;11.48;;;7.82;;
29824;SDS011;16713;52.916;12.834;2023-04-01T00:03:41;10.73;;;7.50;;
29824;SDS011;16713;52.916;12.834;2023-04-01T00:06:08;11.05;;;8.10;;
29824;SDS011;16713;52.916;12.834;2023-04-01T00:08:36;12.05;;;8.10;;
29824;SDS011;16713;52.916;12.834;2023-04-01T00:11:02;11.45;;;8.18;;
29824;SDS011;16713;52.916;12.834;2023-04-01T00:13:29;12.90;;;8.38;;
29824;SDS011;16713;52.916;12.834;2023-04-01T00:15:56;13.93;;;7.53;;
29824;SDS011;16713;52.916;12.834;2023-04-01T00:18:25;8.68;;;7.63;;
29824;SDS011;16713;52.916;12.834;2023-04-01T00:20:52;9.52;;;7.35;;
29824;SDS011;16713;52.916;12.834;2023-04-01T00:23:19;9.50;;;7.03;;
29824;SDS011;16713;52.916;12.834;2023-04-01T00:25:45;12.90;;;7.90;;
29824;SDS011;16713;52.916;12.834;2023-04-01T00:28:17;11.85;;;7.53;;
29824;SDS011;16713;52.916;12.834;2023-04-01T00:33:13;9.00;;;7.22;;
29824;SDS011;16713;52.916;12.834;2023-04-01T00:35:39;8.35;;;7.25;;
29824;SDS011;16713;52.916;12.834;2023-04-01T00:38:06;11.27;;;7.30;;
29824;SDS011;16713;52.916;12.834;2023-04-01T00:40:35;9.05;;;7.78;;
29824;SDS011;16713;52.916;12.834;2023-04-01T00:43:03;11.30;;;7.70;;
29824;SDS011;16713;52.916;12.834;2023-04-01T00:45:39;9.45;;;7.13;;
29824;SDS011;16713;52.916;12.834;2023-04-01T00:48:27;10.70;;;8.07;;
29824;SDS011;16713;52.916;12.834;2023-04-01T00:50:59;11.82;;;8.05;;
29824;SDS011;16713;52.916;12.834;2023-04-01T00:53:30;11.38;;;8.63;;
29824;SDS011;16713;52.916;12.834;2023-04-01T00:56:06;12.57;;;8.65;;
29824;SDS011;16713;52.916;12.834;2023-04-01T00:58:37;12.68;;;7.38;;
29824;SDS011;16713;52.916;12.834;2023-04-01T01:01:08;10.18;;;7.85;;
29824;SDS011;16713;52.916;12.834;2023-04-01T01:03:36;10.05;;;7.30;;
29824;SDS011;16713;52.916;12.834;2023-04-01T01:09:03;10.52;;;7.85;;
29824;SDS011;16713;52.916;12.834;2023-04-01T01:25:32;8.88;;;6.80;;
29824;SDS011;16713;52.916;12.834;2023-04-01T01:33:30;8.93;;;5.68;;
29824;SDS011;16713;52.916;12.834;2023-04-01T01:35:59;7.50;;;5.65;;
29824;SDS011;16713;52.916;12.834;2023-04-01T01:38:31;15.10;;;6.82;;
29824;SDS011;16713;52.916;12.834;2023-04-01T01:41:00;13.60;;;6.60;;
29824;SDS011;16713;52.916;12.834;2023-04-01T01:43:36;8.07;;;6.03;;
29824;SDS011;16713;52.916;12.834;2023-04-01T01:46:10;11.13;;;5.60;;
29824;SDS011;16713;52.916;12.834;2023-04-01T01:48:41;11.07;;;6.63;;
29824;SDS011;16713;52.916;12.834;2023-04-01T01:51:09;11.77;;;6.38;;
29824;SDS011;16713;52.916;12.834;2023-04-01T01:53:36;8.38;;;6.05;;
29824;SDS011;16713;52.916;12.834;2023-04-01T01:56:03;11.90;;;5.70;;
29824;SDS011;16713;52.916;12.834;2023-04-01T01:58:32;8.27;;;5.85;;
29824;SDS011;16713;52.916;12.834;2023-04-01T02:01:07;10.38;;;5.95;;
29824;SDS011;16713;52.916;12.834;2023-04-01T02:03:39;8.30;;;6.10;;
29824;SDS011;16713;52.916;12.834;2023-04-01T02:06:08;10.30;;;6.32;;
29824;SDS011;16713;52.916;12.834;2023-04-01T02:11:30;10.73;;;5.82;;
29824;SDS011;16713;52.916;12.834;2023-04-01T02:14:02;9.82;;;6.30;;
29824;SDS011;16713;52.916;12.834;2023-04-01T02:16:34;10.00;;;6.20;;
29824;SDS011;16713;52.916;12.834;2023-04-01T02:19:07;10.18;;;6.00;;
29824;SDS011;16713;52.916;12.834;2023-04-01T02:21:35;13.73;;;6.68;;
29824;SDS011;16713;52.916;12.834;2023-04-01T02:24:05;9.50;;;6.00;;
29824;SDS011;16713;52.916;12.834;2023-04-01T02:26:36;13.82;;;6.78;;
29824;SDS011;16713;52.916;12.834;2023-04-01T02:29:02;8.25;;;6.05;;
29824;SDS011;16713;52.916;12.834;2023-04-01T02:31:31;9.27;;;5.95;;
29824;SDS011;16713;52.916;12.834;2023-04-01T02:33:58;14.57;;;6.90;;
29824;SDS011;16713;52.916;12.834;2023-04-01T02:36:24;15.73;;;6.43;;
29824;SDS011;16713;52.916;12.834;2023-04-01T02:38:51;8.05;;;6.22;;
29824;SDS011;16713;52.916;12.834;2023-04-01T02:41:18;12.10;;;6.57;;
29824;SDS011;16713;52.916;12.834;2023-04-01T02:43:44;9.75;;;6.32;;
29824;SDS011;16713;52.916;12.834;2023-04-01T02:46:11;10.65;;;6.55;;
29824;SDS011;16713;52.916;12.834;2023-04-01T02:48:37;12.40;;;7.30;;
29824;SDS011;16713;52.916;12.834;2023-04-01T02:51:04;13.27;;;6.57;;
29824;SDS011;16713;52.916;12.834;2023-04-01T02:53:30;12.20;;;7.00;;
29824;SDS011;16713;52.916;12.834;2023-04-01T02:55:57;11.63;;;6.57;;
29824;SDS011;16713;52.916;12.834;2023-04-01T02:58:23;10.02;;;6.90;;
29824;SDS011;16713;52.916;12.834;2023-04-01T03:00:50;11.27;;;6.53;;
29824;SDS011;16713;52.916;12.834;2023-04-01T03:03:17;12.93;;;7.32;;
29824;SDS011;16713;52.916;12.834;2023-04-01T03:05:43;11.73;;;6.78;;
29824;SDS011;16713;52.916;12.834;2023-04-01T03:08:09;10.15;;;6.65;;
29824;SDS011;16713;52.916;12.834;2023-04-01T03:10:36;9.10;;;6.38;;
29824;SDS011;16713;52.916;12.834;2023-04-01T03:13:03;11.20;;;6.65;;
29824;SDS011;16713;52.916;12.834;2023-04-01T03:15:29;13.48;;;7.05;;
29824;SDS011;16713;52.916;12.834;2023-04-01T03:17:56;11.10;;;7.78;;
29824;SDS011;16713;52.916;12.834;2023-04-01T03:20:22;12.38;;;7.22;;
29824;SDS011;16713;52.916;12.834;2023-04-01T03:22:49;9.93;;;7.35;;
29824;SDS011;16713;52.916;12.834;2023-04-01T03:25:15;11.85;;;7.70;;
29824;SDS011;16713;52.916;12.834;2023-04-01T03:27:42;11.60;;;7.47;;
29824;SDS011;16713;52.916;12.834;2023-04-01T03:30:08;9.63;;;7.07;;
29824;SDS011;16713;52.916;12.834;2023-04-01T03:32:35;9.10;;;7.13;;
29824;SDS011;16713;52.916;12.834;2023-04-01T03:35:02;13.48;;;8.10;;
29824;SDS011;16713;52.916;12.834;2023-04-01T03:37:29;14.20;;;9.18;;
29824;SDS011;16713;52.916;12.834;2023-04-01T03:39:55;11.02;;;9.48;;
29824;SDS011;16713;52.916;12.834;2023-04-01T03:42:22;15.55;;;9.57;;
29824;SDS011;16713;52.916;12.834;2023-04-01T03:44:48;13.80;;;10.10;;
29824;SDS011;16713;52.916;12.834;2023-04-01T03:47:15;12.82;;;9.10;;
29824;SDS011;16713;52.916;12.834;2023-04-01T03:49:42;13.30;;;8.52;;
29824;SDS011;16713;52.916;12.834;2023-04-01T03:52:09;9.68;;;7.68;;
29824;SDS011;16713;52.916;12.834;2023-04-01T03:54:37;11.07;;;7.82;;
29824;SDS011;16713;52.916;12.834;2023-04-01T03:57:03;14.00;;;8.63;;
29824;SDS011;16713;52.916;12.834;2023-04-01T03:59:30;13.32;;;8.10;;
29824;SDS011;16713;52.916;12.834;2023-04-01T04:01:57;13.68;;;8.55;;
29824;SDS011;16713;52.916;12.834;2023-04-01T04:04:23;11.57;;;8.45;;
29824;SDS011;16713;52.916;12.834;2023-04-01T04:06:50;12.20;;;8.20;;
29824;SDS011;16713;52.916;12.834;2023-04-01T04:09:17;12.05;;;8.48;;
29824;SDS011;16713;52.916;12.834;2023-04-01T04:11:43;11.93;;;8.02;;
29824;SDS011;16713;52.916;12.834;2023-04-01T04:14:10;11.30;;;7.90;;
29824;SDS011;16713;52.916;12.834;2023-04-01T04:16:36;16.02;;;9.00;;
29824;SDS011;16713;52.916;12.834;2023-04-01T04:19:03;12.70;;;8.68;;
29824;SDS011;16713;52.916;12.834;2023-04-01T04:21:30;13.23;;;8.57;;
29824;SDS011;16713;52.916;12.834;2023-04-01T04:23:58;12.40;;;9.00;;
29824;SDS011;16713;52.916;12.834;2023-04-01T04:26:25;13.40;;;9.60;;
29824;SDS011;16713;52.916;12.834;2023-04-01T04:28:53;11.95;;;8.68;;
29824;SDS011;16713;52.916;12.834;2023-04-01T04:31:21;11.18;;;8.43;;
29824;SDS011;16713;52.916;12.834;2023-04-01T04:33:48;13.60;;;9.35;;
29824;SDS011;16713;52.916;12.834;2023-04-01T04:36:15;12.98;;;9.18;;
29824;SDS011;16713;52.916;12.834;2023-04-01T04:38:42;14.82;;;9.73;;
29824;SDS011;16713;52.916;12.834;2023-04-01T04:41:12;14.90;;;9.57;;
29824;SDS011;16713;52.916;12.834;2023-04-01T04:46:08;14.23;;;9.90;;
29824;SDS011;16713;52.916;12.834;2023-04-01T04:48:35;12.65;;;9.07;;
29824;SDS011;16713;52.916;12.834;2023-04-01T04:51:02;11.93;;;9.02;;
29824;SDS011;16713;52.916;12.834;2023-04-01T04:53:29;12.48;;;9.10;;
29824;SDS011;16713;52.916;12.834;2023-04-01T04:55:56;14.48;;;10.25;;
29824;SDS011;16713;52.916;12.834;2023-04-01T04:58:22;15.93;;;10.35;;
29824;SDS011;16713;52.916;12.834;2023-04-01T05:00:48;13.02;;;9.77;;
29824;SDS011;16713;52.916;12.834;2023-04-01T05:03:15;14.15;;;9.73;;
29824;SDS011;16713;52.916;12.834;2023-04-01T05:05:47;14.68;;;10.15;;
29824;SDS011;16713;52.916;12.834;2023-04-01T05:08:15;13.02;;;9.48;;
29824;SDS011;16713;52.916;12.834;2023-04-01T05:10:42;5.68;;;4.25;;
29824;SDS011;16713;52.916;12.834;2023-04-01T05:13:08;4.80;;;3.60;;
29824;SDS011;16713;52.916;12.834;2023-04-01T05:15:35;2.92;;;2.50;;
29824;SDS011;16713;52.916;12.834;2023-04-01T05:18:01;2.83;;;2.35;;
29824;SDS011;16713;52.916;12.834;2023-04-01T05:20:28;3.35;;;2.45;;
29824;SDS011;16713;52.916;12.834;2023-04-01T05:22:58;2.92;;;2.53;;
29824;SDS011;16713;52.916;12.834;2023-04-01T05:25:25;2.95;;;2.55;;
29824;SDS011;16713;52.916;12.834;2023-04-01T05:27:52;4.32;;;2.97;;
29824;SDS011;16713;52.916;12.834;2023-04-01T05:30:18;4.28;;;3.47;;
29824;SDS011;16713;52.916;12.834;2023-04-01T05:32:45;3.95;;;3.55;;
29824;SDS011;16713;52.916;12.834;2023-04-01T05:35:11;6.20;;;4.90;;
29824;SDS011;16713;52.916;12.834;2023-04-01T05:37:38;5.88;;;4.80;;
29824;SDS011;16713;52.916;12.834;2023-04-01T05:40:04;7.13;;;5.13;;
29824;SDS011;16713;52.916;12.834;2023-04-01T05:42:31;8.43;;;6.05;;
29824;SDS011;16713;52.916;12.834;2023-04-01T05:44:58;9.77;;;6.70;;
29824;SDS011;16713;52.916;12.834;2023-04-01T05:47:24;8.18;;;6.32;;
29824;SDS011;16713;52.916;12.834;2023-04-01T05:49:50;8.68;;;6.28;;
29824;SDS011;16713;52.916;12.834;2023-04-01T05:52:17;9.82;;;6.80;;
29824;SDS011;16713;52.916;12.834;2023-04-01T05:54:43;10.60;;;7.25;;
29824;SDS011;16713;52.916;12.834;2023-04-01T05:57:10;11.13;;;7.68;;
29824;SDS011;16713;52.916;12.834;2023-04-01T05:59:36;10.70;;;8.15;;
29824;SDS011;16713;52.916;12.834;2023-04-01T06:02:03;11.43;;;7.55;;
29824;SDS011;16713;52.916;12.834;2023-04-01T06:04:32;12.32;;;7.70;;
29824;SDS011;16713;52.916;12.834;2023-04-01T06:07:10;13.20;;;8.15;;
29824;SDS011;16713;52.916;12.834;2023-04-01T06:09:39;11.98;;;7.88;;
29824;SDS011;16713;52.916;12.834;2023-04-01T06:20:57;13.10;;;8.07;;
29824;SDS011;16713;52.916;12.834;2023-04-01T06:34:38;11.82;;;7.68;;
29824;SDS011;16713;52.916;12.834;2023-04-01T06:37:00;12.15;;;7.93;;
29824;SDS011;16713;52.916;12.834;2023-04-01T06:56:31;11.52;;;6.90;;
29824;SDS011;16713;52.916;12.834;2023-04-01T06:59:03;11.27;;;6.93;;
29824;SDS011;16713;52.916;12.834;2023-04-01T07:01:38;10.50;;;6.80;;
29824;SDS011;16713;52.916;12.834;2023-04-01T07:09:40;10.55;;;6.93;;
29824;SDS011;16713;52.916;12.834;2023-04-01T07:12:11;9.02;;;6.10;;
29824;SDS011;16713;52.916;12.834;2023-04-01T07:14:45;12.88;;;5.90;;
29824;SDS011;16713;52.916;12.834;2023-04-01T07:17:28;16.15;;;7.35;;
29824;SDS011;16713;52.916;12.834;2023-04-01T07:20:03;11.73;;;6.10;;
29824;SDS011;16713;52.916;12.834;2023-04-01T07:22:48;8.23;;;5.25;;
29824;SDS011;16713;52.916;12.834;2023-04-01T07:25:18;10.18;;;5.35;;
29824;SDS011;16713;52.916;12.834;2023-04-01T07:27:48;10.30;;;6.03;;
29824;SDS011;16713;52.916;12.834;2023-04-01T07:30:17;10.88;;;5.95;;
29824;SDS011;16713;52.916;12.834;2023-04-01T07:32:51;10.55;;;5.68;;
29824;SDS011;16713;52.916;12.834;2023-04-01T07:47:34;10.00;;;5.45;;
29824;SDS011;16713;52.916;12.834;2023-04-01T07:55:23;7.97;;;4.70;;
29824;SDS011;16713;52.916;12.834;2023-04-01T08:11:37;7.30;;;4.32;;
29824;SDS011;16713;52.916;12.834;2023-04-01T08:14:31;5.43;;;3.55;;
29824;SDS011;16713;52.916;12.834;2023-04-01T08:19:46;3.88;;;2.90;;
29824;SDS011;16713;52.916;12.834;2023-04-01T08:25:33;4.93;;;3.40;;
29824;SDS011;16713;52.916;12.834;2023-04-01T08:30:55;5.20;;;2.53;;
29824;SDS011;16713;52.916;12.834;2023-04-01T08:33:24;3.90;;;2.67;;
29824;SDS011;16713;52.916;12.834;2023-04-01T08:36:02;4.63;;;2.90;;
29824;SDS011;16713;52.916;12.834;2023-04-01T08:52:36;3.67;;;2.85;;
29824;SDS011;16713;52.916;12.834;2023-04-01T09:01:26;6.72;;;4.03;;
29824;SDS011;16713;52.916;12.834;2023-04-01T09:18:32;3.63;;;2.40;;
29824;SDS011;16713;52.916;12.834;2023-04-01T09:21:10;3.65;;;2.78;;
29824;SDS011;16713;52.916;12.834;2023-04-01T09:40:34;3.75;;;2.92;;
29824;SDS011;16713;52.916;12.834;2023-04-01T09:45:54;5.45;;;3.15;;
29824;SDS011;16713;52.916;12.834;2023-04-01T10:10:39;3.35;;;2.45;;
29824;SDS011;16713;52.916;12.834;2023-04-01T10:19:20;3.10;;;2.30;;
29824;SDS011;16713;52.916;12.834;2023-04-01T11:03:43;1.50;;;1.38;;
29824;SDS011;16713;52.916;12.834;2023-04-01T11:15:39;1.77;;;1.60;;
29824;SDS011;16713;52.916;12.834;2023-04-01T11:18:38;4.30;;;1.38;;
29824;SDS011;16713;52.916;12.834;2023-04-01T11:26:40;2.17;;;1.85;;
29824;SDS011;16713;52.916;12.834;2023-04-01T11:34:48;2.08;;;1.75;;
29824;SDS011;16713;52.916;12.834;2023-04-01T11:40:54;1.33;;;1.23;;
29824;SDS011;16713;52.916;12.834;2023-04-01T11:44:29;1.77;;;1.67;;
29824;SDS011;16713;52.916;12.834;2023-04-01T11:52:05;4.85;;;2.40;;
29824;SDS011;16713;52.916;12.834;2023-04-01T11:54:51;4.47;;;1.77;;
29824;SDS011;16713;52.916;12.834;2023-04-01T12:01:01;3.88;;;2.15;;
29824;SDS011;16713;52.916;12.834;2023-04-01T12:20:36;2.47;;;1.90;;
29824;SDS011;16713;52.916;12.834;2023-04-01T12:39:48;3.50;;;2.78;;
29824;SDS011;16713;52.916;12.834;2023-04-01T12:42:35;4.25;;;2.40;;
29824;SDS011;16713;52.916;12.834;2023-04-01T12:45:18;4.80;;;2.25;;
29824;SDS011;16713;52.916;12.834;2023-04-01T12:51:01;4.90;;;2.28;;
29824;SDS011;16713;52.916;12.834;2023-04-01T12:56:22;2.97;;;2.13;;
29824;SDS011;16713;52.916;12.834;2023-04-01T13:10:13;4.85;;;3.50;;
29824;SDS011;16713;52.916;12.834;2023-04-01T13:24:21;4.47;;;2.55;;
29824;SDS011;16713;52.916;12.834;2023-04-01T13:35:43;4.75;;;2.75;;
29824;SDS011;16713;52.916;12.834;2023-04-01T13:38:28;4.60;;;3.15;;
29824;SDS011;16713;52.916;12.834;2023-04-01T13:44:00;3.65;;;3.00;;
29824;SDS011;16713;52.916;12.834;2023-04-01T14:11:13;2.30;;;1.67;;
29824;SDS011;16713;52.916;12.834;2023-04-01T14:48:07;5.57;;;2.17;;
29824;SDS011;16713;52.916;12.834;2023-04-01T14:51:15;5.03;;;1.83;;
29824;SDS011;16713;52.916;12.834;2023-04-01T14:54:07;2.30;;;1.83;;
29824;SDS011;16713;52.916;12.834;2023-04-01T14:56:38;1.77;;;1.60;;
29824;SDS011;16713;52.916;12.834;2023-04-01T15:07:37;3.40;;;1.77;;
29824;SDS011;16713;52.916;12.834;2023-04-01T15:10:24;3.40;;;1.50;;
29824;SDS011;16713;52.916;12.834;2023-04-01T15:13:03;2.85;;;2.10;;
29824;SDS011;16713;52.916;12.834;2023-04-01T15:15:55;4.65;;;1.85;;
29824;SDS011;16713;52.916;12.834;2023-04-01T15:34:49;5.80;;;1.80;;
29824;SDS011;16713;52.916;12.834;2023-04-01T15:46:14;4.03;;;1.83;;
29824;SDS011;16713;52.916;12.834;2023-04-01T15:57:40;5.22;;;2.70;;
29824;SDS011;16713;52.916;12.834;2023-04-01T16:00:29;3.47;;;2.42;;
29824;SDS011;16713;52.916;12.834;2023-04-01T16:22:20;7.20;;;2.85;;
29824;SDS011;16713;52.916;12.834;2023-04-01T16:28:13;5.10;;;2.95;;
29824;SDS011;16713;52.916;12.834;2023-04-01T16:31:09;6.47;;;2.60;;
29824;SDS011;16713;52.916;12.834;2023-04-01T16:36:34;7.32;;;3.15;;
29824;SDS011;16713;52.916;12.834;2023-04-01T16:39:15;4.55;;;2.72;;
29824;SDS011;16713;52.916;12.834;2023-04-01T16:41:49;10.13;;;3.38;;
29824;SDS011;16713;52.916;12.834;2023-04-01T16:44:24;9.50;;;4.40;;
29824;SDS011;16713;52.916;12.834;2023-04-01T16:46:53;6.88;;;3.40;;
29824;SDS011;16713;52.916;12.834;2023-04-01T16:50:26;6.57;;;2.88;;
29824;SDS011;16713;52.916;12.834;2023-04-01T16:55:16;7.65;;;3.03;;
29824;SDS011;16713;52.916;12.834;2023-04-01T16:57:46;4.32;;;3.00;;
29824;SDS011;16713;52.916;12.834;2023-04-01T17:03:32;7.88;;;4.03;;
29824;SDS011;16713;52.916;12.834;2023-04-01T17:05:57;9.57;;;4.07;;
29824;SDS011;16713;52.916;12.834;2023-04-01T17:08:58;6.00;;;3.90;;
29824;SDS011;16713;52.916;12.834;2023-04-01T17:14:45;7.88;;;3.95;;
29824;SDS011;16713;52.916;12.834;2023-04-01T17:16:54;9.45;;;4.55;;
29824;SDS011;16713;52.916;12.834;2023-04-01T17:25:17;8.35;;;4.28;;
29824;SDS011;16713;52.916;12.834;2023-04-01T17:28:05;6.05;;;4.05;;
29824;SDS011;16713;52.916;12.834;2023-04-01T17:30:41;11.55;;;4.70;;
29824;SDS011;16713;52.916;12.834;2023-04-01T17:52:39;12.15;;;5.70;;
29824;SDS011;16713;52.916;12.834;2023-04-01T17:55:28;14.68;;;6.10;;
29824;SDS011;16713;52.916;12.834;2023-04-01T17:58:20;10.88;;;6.03;;
29824;SDS011;16713;52.916;12.834;2023-04-01T18:12:21;12.00;;;5.50;;
29824;SDS011;16713;52.916;12.834;2023-04-01T18:17:25;18.38;;;5.95;;
29824;SDS011;16713;52.916;12.834;2023-04-01T18:23:27;11.23;;;5.18;;
29824;SDS011;16713;52.916;12.834;2023-04-01T18:26:03;18.95;;;5.70;;
29824;SDS011;16713;52.916;12.834;2023-04-01T18:28:43;14.07;;;6.10;;
29824;SDS011;16713;52.916;12.834;2023-04-01T18:31:20;14.90;;;6.25;;
29824;SDS011;16713;52.916;12.834;2023-04-01T18:36:51;14.73;;;8.10;;
29824;SDS011;16713;52.916;12.834;2023-04-01T18:39:46;11.88;;;5.65;;
29824;SDS011;16713;52.916;12.834;2023-04-01T18:45:03;16.80;;;6.10;;
29824;SDS011;16713;52.916;12.834;2023-04-01T18:50:56;11.70;;;5.18;;
29824;SDS011;16713;52.916;12.834;2023-04-01T18:56:58;9.57;;;4.70;;
29824;SDS011;16713;52.916;12.834;2023-04-01T19:02:18;10.23;;;5.07;;
29824;SDS011;16713;52.916;12.834;2023-04-01T19:05:11;9.73;;;5.43;;
29824;SDS011;16713;52.916;12.834;2023-04-01T19:07:45;12.90;;;4.38;;
29824;SDS011;16713;52.916;12.834;2023-04-01T19:19:13;9.07;;;4.55;;
29824;SDS011;16713;52.916;12.834;2023-04-01T19:38:21;11.77;;;4.18;;
29824;SDS011;16713;52.916;12.834;2023-04-01T19:44:02;7.43;;;3.88;;
29824;SDS011;16713;52.916;12.834;2023-04-01T19:46:42;10.68;;;4.60;;
29824;SDS011;16713;52.916;12.834;2023-04-01T19:52:18;9.18;;;3.67;;
29824;SDS011;16713;52.916;12.834;2023-04-01T20:03:04;14.85;;;4.10;;
29824;SDS011;16713;52.916;12.834;2023-04-01T20:05:44;6.60;;;4.05;;
29824;SDS011;16713;52.916;12.834;2023-04-01T20:08:42;6.85;;;3.63;;
29824;SDS011;16713;52.916;12.834;2023-04-01T20:11:28;9.65;;;3.70;;
29824;SDS011;16713;52.916;12.834;2023-04-01T20:16:48;7.45;;;3.80;;
29824;SDS011;16713;52.916;12.834;2023-04-01T20:22:03;8.68;;;4.30;;
29824;SDS011;16713;52.916;12.834;2023-04-01T20:24:43;5.45;;;3.80;;
29824;SDS011;16713;52.916;12.834;2023-04-01T20:27:24;12.48;;;4.90;;
29824;SDS011;16713;52.916;12.834;2023-04-01T20:33:10;9.65;;;2.80;;
29824;SDS011;16713;52.916;12.834;2023-04-01T20:44:10;10.88;;;3.28;;
29824;SDS011;16713;52.916;12.834;2023-04-01T20:54:43;8.75;;;3.00;;
29824;SDS011;16713;52.916;12.834;2023-04-01T20:57:32;7.18;;;2.67;;
29824;SDS011;16713;52.916;12.834;2023-04-01T21:06:07;6.60;;;2.70;;
29824;SDS011;16713;52.916;12.834;2023-04-01T21:08:46;5.47;;;2.90;;
29824;SDS011;16713;52.916;12.834;2023-04-01T21:11:18;7.22;;;2.40;;
29824;SDS011;16713;52.916;12.834;2023-04-01T21:30:35;5.82;;;2.40;;
29824;SDS011;16713;52.916;12.834;2023-04-01T21:38:28;5.80;;;2.70;;
29824;SDS011;16713;52.916;12.834;2023-04-01T21:52:02;4.85;;;2.55;;
29824;SDS011;16713;52.916;12.834;2023-04-01T22:12:03;8.50;;;3.97;;
29824;SDS011;16713;52.916;12.834;2023-04-01T22:14:24;11.57;;;2.55;;
29824;SDS011;16713;52.916;12.834;2023-04-01T22:20:50;6.00;;;2.63;;
29824;SDS011;16713;52.916;12.834;2023-04-01T22:31:31;7.80;;;2.60;;
29824;SDS011;16713;52.916;12.834;2023-04-01T22:34:12;4.75;;;2.25;;
29824;SDS011;16713;52.916;12.834;2023-04-01T22:39:59;4.45;;;2.45;;
29824;SDS011;16713;52.916;12.834;2023-04-01T22:47:40;5.50;;;2.00;;
29824;SDS011;16713;52.916;12.834;2023-04-01T22:50:27;8.45;;;2.40;;
29824;SDS011;16713;52.916;12.834;2023-04-01T22:53:24;5.00;;;2.28;;
29824;SDS011;16713;52.916;12.834;2023-04-01T22:56:12;6.05;;;1.98;;
29824;SDS011;16713;52.916;12.834;2023-04-01T22:59:10;5.97;;;2.47;;
29824;SDS011;16713;52.916;12.834;2023-04-01T23:01:48;9.63;;;3.35;;
29824;SDS011;16713;52.916;12.834;2023-04-01T23:04:23;7.25;;;2.05;;
29824;SDS011;16713;52.916;12.834;2023-04-01T23:06:57;5.82;;;2.08;;
29824;SDS011;16713;52.916;12.834;2023-04-01T23:09:28;8.77;;;2.33;;
29824;SDS011;16713;52.916;12.834;2023-04-01T23:12:07;6.57;;;1.75;;
29824;SDS011;16713;52.916;12.834;2023-04-01T23:14:44;8.38;;;2.97;;
29824;SDS011;16713;52.916;12.834;2023-04-01T23:17:18;5.03;;;1.80;;
29824;SDS011;16713;52.916;12.834;2023-04-01T23:25:33;6.97;;;2.17;;
29824;SDS011;16713;52.916;12.834;2023-04-01T23:35:49;3.97;;;1.85;;
29824;SDS011;16713;52.916;12.834;2023-04-01T23:38:18;5.72;;;1.92;;
29824;SDS011;16713;52.916;12.834;2023-04-01T23:40:52;3.58;;;1.58;;
29824;SDS011;16713;52.916;12.834;2023-04-01T23:43:22;7.68;;;2.00;;
29824;SDS011;16713;52.916;12.834;2023-04-01T23:46:10;5.60;;;3.40;;
29824;SDS011;16713;52.916;12.834;2023-04-01T23:48:40;5.28;;;2.05;;
29824;SDS011;16713;52.916;12.834;2023-04-01T23:51:19;5.63;;;1.70;;
29824;SDS011;16713;52.916;12.834;2023-04-01T23:54:00;11.73;;;1.83;;
29824;SDS011;16713;52.916;12.834;2023-04-01T23:56:39;3.83;;;1.75;;
29824;SDS011;16713;52.916;12.834;2023-04-01T23:59:14;11.77;;;2.15;;
